Time;durP1;ratioP1;P1;durP2;ratioP2;P2;SDS_P1;SDS_P2;PMS_P1;PMS_P2;Temp;Humidity;BMP_temperature;BMP_pressure;BME280_temperature;BME280_humidity;BME280_pressure;Samples;Min_cycle;Max_cycle;Signal;HPM_P1;HPM_P2
2022/07/26 00:00:23;;;;;;;;;;;19.80;99.90;;;;;;5096636;28;20306;-69
2022/07/26 00:02:48;;;;;;;;;;;19.90;99.90;;;;;;5096865;28;20329;-69
2022/07/26 00:05:15;;;;;;;;;;;19.90;99.90;;;;;;5096416;28;19912;-69
2022/07/26 00:07:40;;;;;;;;;;;19.90;99.90;;;;;;5096479;28;19908;-69
2022/07/26 00:10:06;;;;;;;;;;;19.90;99.90;;;;;;5078325;28;20287;-69
2022/07/26 00:12:32;;;;;;;;;;;19.80;99.90;;;;;;5096462;28;20416;-69
2022/07/26 00:14:58;;;;;;;;;;;19.80;99.90;;;;;;5096363;28;19963;-69
2022/07/26 00:17:23;;;;;;;;;;;19.80;99.90;;;;;;5096961;28;19932;-69
2022/07/26 00:19:49;;;;;;;;;;;19.70;99.90;;;;;;5078236;28;19911;-69
2022/07/26 00:22:32;;;;;;;;;;;19.50;99.90;;;;;;5096256;28;19904;-70
2022/07/26 00:24:58;;;;;;;;;;;19.40;99.90;;;;;;5095074;28;19908;-69
2022/07/26 00:27:23;;;;;;;;;;;19.30;99.90;;;;;;5096412;28;19933;-70
2022/07/26 00:29:49;;;;;;;;;;;19.20;99.90;;;;;;5096669;28;19951;-69
2022/07/26 00:32:14;;;;;;;;;;;19.10;99.90;;;;;;5096077;28;19929;-70
2022/07/26 00:34:40;;;;;;;;;;;19.10;99.90;;;;;;5095978;28;20294;-70
2022/07/26 00:37:05;;;;;;;;;;;19.20;99.90;;;;;;5077839;28;19904;-70
2022/07/26 00:39:31;;;;;;;;;;;19.20;99.90;;;;;;5096075;28;19994;-70
2022/07/26 00:41:56;;;;;;;;;;;19.30;99.90;;;;;;5095919;28;19910;-70
2022/07/26 00:44:22;;;;;;;;;;;19.30;99.90;;;;;;5096035;28;19953;-69
2022/07/26 00:46:47;;;;;;;;;;;19.30;99.90;;;;;;5095770;28;19908;-70
2022/07/26 00:49:13;;;;;;;;;;;19.30;99.90;;;;;;5096213;28;19908;-70
2022/07/26 00:51:38;;;;;;;;;;;19.40;99.90;;;;;;5095710;28;19911;-71
2022/07/26 00:54:04;;;;;;;;;;;19.40;99.90;;;;;;5095679;28;20364;-70
2022/07/26 00:56:31;;;;;;;;;;;19.40;99.90;;;;;;5095603;28;19952;-70
2022/07/26 00:58:56;;;;;;;;;;;19.30;99.90;;;;;;5077449;28;19963;-70
2022/07/26 01:01:22;;;;;;;;;;;19.30;99.90;;;;;;5077375;28;20376;-70
2022/07/26 01:03:52;;;;;;;;;;;19.40;99.90;;;;;;5095286;28;20360;-71
2022/07/26 01:06:17;;;;;;;;;;;19.40;99.90;;;;;;5077250;28;19915;-69
2022/07/26 01:08:43;;;;;;;;;;;19.50;99.90;;;;;;5095276;28;19912;-70
2022/07/26 01:11:08;;;;;;;;;;;19.50;99.90;;;;;;5095298;28;19989;-70
2022/07/26 01:13:34;;;;;;;;;;;19.50;99.90;;;;;;5077117;28;19904;-70
2022/07/26 01:15:59;;;;;;;;;;;19.40;99.90;;;;;;5095144;28;19911;-70
2022/07/26 01:18:25;;;;;;;;;;;19.40;99.90;;;;;;5095425;28;19904;-70
2022/07/26 01:20:51;;;;;;;;;;;19.50;99.90;;;;;;5095056;28;20026;-70
2022/07/26 01:23:17;;;;;;;;;;;19.50;99.90;;;;;;5095014;28;19994;-70
2022/07/26 01:25:43;;;;;;;;;;;19.50;99.90;;;;;;5095559;28;19949;-70
2022/07/26 01:28:08;;;;;;;;;;;19.60;99.90;;;;;;5094983;28;19908;-70
2022/07/26 01:30:34;;;;;;;;;;;19.60;99.90;;;;;;5094925;28;19910;-71
2022/07/26 01:32:59;;;;;;;;;;;19.60;99.90;;;;;;5094929;28;19998;-71
2022/07/26 01:35:25;;;;;;;;;;;19.60;99.90;;;;;;5076395;28;20313;-70
2022/07/26 01:37:51;;;;;;;;;;;19.60;99.90;;;;;;5094873;28;19949;-71
2022/07/26 01:40:16;;;;;;;;;;;19.60;99.90;;;;;;5095085;28;19994;-70
2022/07/26 01:42:41;;;;;;;;;;;19.50;99.90;;;;;;5094782;28;19927;-70
2022/07/26 01:45:10;;;;;;;;;;;19.50;99.90;;;;;;5094611;28;19908;-70
2022/07/26 01:47:36;;;;;;;;;;;19.40;99.90;;;;;;5094868;28;19960;-71
2022/07/26 01:50:03;;;;;;;;;;;19.30;99.90;;;;;;5095161;28;19903;-70
2022/07/26 01:52:28;;;;;;;;;;;19.20;99.90;;;;;;5094820;28;19908;-70
2022/07/26 01:54:54;;;;;;;;;;;19.10;99.90;;;;;;5094665;28;19904;-70
2022/07/26 01:57:19;;;;;;;;;;;19.10;99.90;;;;;;5094744;28;19957;-70
2022/07/26 01:59:45;;;;;;;;;;;19.00;99.90;;;;;;5076272;28;19904;-70
2022/07/26 02:02:10;;;;;;;;;;;19.00;99.90;;;;;;5094383;28;19904;-70
2022/07/26 02:07:20;;;;;;;;;;;19.00;99.90;;;;;;5094549;28;19918;-71
2022/07/26 02:09:45;;;;;;;;;;;19.00;99.90;;;;;;5093906;28;19994;-70
2022/07/26 02:12:11;;;;;;;;;;;19.00;99.90;;;;;;5093635;28;20299;-70
2022/07/26 02:14:36;;;;;;;;;;;19.00;99.90;;;;;;5094106;28;19962;-71
2022/07/26 02:17:02;;;;;;;;;;;19.00;99.90;;;;;;5094206;28;19991;-71
2022/07/26 02:19:28;;;;;;;;;;;18.90;99.90;;;;;;5094141;28;19935;-71
2022/07/26 02:21:54;;;;;;;;;;;18.90;99.90;;;;;;5094109;28;20383;-70
2022/07/26 02:24:19;;;;;;;;;;;18.90;99.90;;;;;;5094004;28;19968;-70
2022/07/26 02:26:45;;;;;;;;;;;19.00;99.90;;;;;;5093969;28;20366;-71
2022/07/26 02:29:10;;;;;;;;;;;19.00;99.90;;;;;;5094202;28;20375;-71
2022/07/26 02:31:36;;;;;;;;;;;19.10;99.90;;;;;;5093948;28;19904;-71
2022/07/26 02:34:01;;;;;;;;;;;19.10;99.90;;;;;;5093908;28;19904;-70
2022/07/26 02:36:27;;;;;;;;;;;19.00;99.90;;;;;;5093962;28;19904;-70
2022/07/26 02:38:52;;;;;;;;;;;19.00;99.90;;;;;;5094203;28;19904;-70
2022/07/26 02:41:18;;;;;;;;;;;19.00;99.90;;;;;;5093881;28;19904;-70
2022/07/26 02:43:43;;;;;;;;;;;18.90;99.90;;;;;;5093767;28;19904;-70
2022/07/26 02:46:09;;;;;;;;;;;18.80;99.90;;;;;;5093787;28;19911;-70
2022/07/26 02:48:35;;;;;;;;;;;18.70;99.90;;;;;;5097367;28;19943;-70
2022/07/26 02:51:00;;;;;;;;;;;18.60;99.90;;;;;;5097922;28;19930;-70
2022/07/26 02:53:26;;;;;;;;;;;18.60;99.90;;;;;;5098270;28;19963;-71
2022/07/26 02:55:52;;;;;;;;;;;18.60;99.90;;;;;;5097846;28;19904;-71
2022/07/26 02:58:20;;;;;;;;;;;18.60;99.90;;;;;;5079667;28;20284;-70
2022/07/26 03:00:46;;;;;;;;;;;18.60;99.90;;;;;;5079669;28;20342;-70
2022/07/26 03:03:12;;;;;;;;;;;18.50;99.90;;;;;;5096819;28;19911;-70
2022/07/26 03:05:38;;;;;;;;;;;18.50;99.90;;;;;;5097319;28;19916;-70
2022/07/26 03:08:04;;;;;;;;;;;18.50;99.90;;;;;;5092151;28;19927;-70
2022/07/26 03:10:29;;;;;;;;;;;18.50;99.90;;;;;;5077325;28;20307;-71
2022/07/26 03:12:55;;;;;;;;;;;18.50;99.90;;;;;;5077409;28;19904;-71
2022/07/26 03:15:20;;;;;;;;;;;18.40;99.90;;;;;;5077264;28;19935;-71
2022/07/26 03:17:46;;;;;;;;;;;18.50;99.90;;;;;;5077512;28;19948;-71
2022/07/26 03:20:12;;;;;;;;;;;18.50;99.90;;;;;;5059074;28;20404;-71
2022/07/26 03:22:37;;;;;;;;;;;18.50;99.90;;;;;;5077082;28;19916;-71
2022/07/26 03:25:03;;;;;;;;;;;18.60;99.90;;;;;;5059011;28;19954;-71
2022/07/26 03:27:28;;;;;;;;;;;18.60;99.90;;;;;;5076808;28;19958;-70
2022/07/26 03:29:54;;;;;;;;;;;18.60;99.90;;;;;;5076913;28;20402;-70
2022/07/26 03:32:19;;;;;;;;;;;18.70;99.90;;;;;;5076884;28;19904;-71
2022/07/26 03:34:45;;;;;;;;;;;18.70;99.90;;;;;;5076852;28;19998;-70
2022/07/26 03:37:11;;;;;;;;;;;18.60;99.90;;;;;;5077185;28;19904;-71
2022/07/26 03:39:37;;;;;;;;;;;18.60;99.90;;;;;;5076789;28;19957;-71
2022/07/26 03:42:03;;;;;;;;;;;18.60;99.90;;;;;;5076795;28;19911;-70
2022/07/26 03:44:28;;;;;;;;;;;18.60;99.90;;;;;;5076687;28;19908;-70
2022/07/26 03:46:54;;;;;;;;;;;18.60;99.90;;;;;;5076563;28;20284;-70
2022/07/26 03:49:19;;;;;;;;;;;18.60;99.90;;;;;;5076646;28;20004;-71
2022/07/26 03:51:45;;;;;;;;;;;18.50;99.90;;;;;;5076609;28;20011;-71
2022/07/26 03:54:10;;;;;;;;;;;18.60;99.90;;;;;;5076877;28;19904;-72
2022/07/26 03:56:36;;;;;;;;;;;18.50;99.90;;;;;;5076337;28;19987;-70
2022/07/26 03:59:03;;;;;;;;;;;18.40;99.90;;;;;;5076276;28;19904;-71
2022/07/26 04:01:29;;;;;;;;;;;18.40;99.90;;;;;;5077282;28;20330;-71
2022/07/26 04:03:54;;;;;;;;;;;18.40;99.90;;;;;;5076226;28;20007;-72
2022/07/26 04:06:20;;;;;;;;;;;18.40;99.90;;;;;;5076307;28;20391;-71
2022/07/26 04:08:46;;;;;;;;;;;18.40;99.90;;;;;;5076875;28;19915;-71
2022/07/26 04:11:12;;;;;;;;;;;18.40;99.90;;;;;;5076563;28;19931;-71
2022/07/26 04:13:37;;;;;;;;;;;18.30;99.90;;;;;;5076246;28;19904;-70
2022/07/26 04:16:03;;;;;;;;;;;18.40;99.90;;;;;;5076202;28;19905;-70
2022/07/26 04:18:29;;;;;;;;;;;18.30;99.90;;;;;;5058209;28;19940;-70
2022/07/26 04:20:54;;;;;;;;;;;18.30;99.90;;;;;;5076383;28;19911;-70
2022/07/26 04:23:20;;;;;;;;;;;18.30;99.90;;;;;;5076061;28;19904;-70
2022/07/26 04:25:45;;;;;;;;;;;18.20;99.90;;;;;;5076064;28;19904;-70
2022/07/26 04:28:11;;;;;;;;;;;18.10;99.90;;;;;;5076206;28;19908;-70
2022/07/26 04:30:37;;;;;;;;;;;18.00;99.90;;;;;;5075946;28;19911;-71
2022/07/26 04:33:03;;;;;;;;;;;18.00;99.90;;;;;;5075846;28;20406;-71
2022/07/26 04:35:28;;;;;;;;;;;18.00;99.90;;;;;;5057858;28;19911;-71
2022/07/26 04:37:54;;;;;;;;;;;18.00;99.90;;;;;;5076061;28;19999;-71
2022/07/26 04:40:20;;;;;;;;;;;18.10;99.90;;;;;;5076248;28;19904;-71
2022/07/26 04:42:46;;;;;;;;;;;18.20;99.90;;;;;;5076143;28;20349;-71
2022/07/26 04:45:12;;;;;;;;;;;18.30;99.90;;;;;;5075547;28;19908;-70
2022/07/26 04:47:42;;;;;;;;;;;18.30;99.90;;;;;;5075527;28;19935;-70
2022/07/26 04:50:08;;;;;;;;;;;18.30;99.90;;;;;;5075416;28;20368;-70
2022/07/26 04:52:33;;;;;;;;;;;18.30;99.90;;;;;;5075759;28;19904;-70
2022/07/26 04:54:59;;;;;;;;;;;18.20;99.90;;;;;;5075399;28;19939;-71
2022/07/26 04:57:24;;;;;;;;;;;18.10;99.90;;;;;;5075364;28;19947;-71
2022/07/26 04:59:50;;;;;;;;;;;18.10;99.90;;;;;;5075636;28;20312;-71
2022/07/26 05:02:15;;;;;;;;;;;18.00;99.90;;;;;;5075305;28;19911;-70
2022/07/26 05:04:41;;;;;;;;;;;17.90;99.90;;;;;;5057344;28;19985;-69
2022/07/26 05:07:07;;;;;;;;;;;17.80;99.90;;;;;;5094905;28;19908;-70
2022/07/26 05:09:33;;;;;;;;;;;17.80;99.90;;;;;;5077036;28;19925;-70
2022/07/26 05:11:58;;;;;;;;;;;17.80;99.90;;;;;;5093779;28;19904;-70
2022/07/26 05:14:24;;;;;;;;;;;17.80;99.90;;;;;;5093750;28;19948;-70
2022/07/26 05:16:49;;;;;;;;;;;17.90;99.90;;;;;;5094371;28;19904;-71
2022/07/26 05:19:15;;;;;;;;;;;17.90;99.90;;;;;;5094273;28;19904;-71
2022/07/26 05:21:40;;;;;;;;;;;17.90;99.90;;;;;;5095125;28;19911;-71
2022/07/26 05:24:06;;;;;;;;;;;17.90;99.90;;;;;;5095001;28;19969;-71
2022/07/26 05:26:32;;;;;;;;;;;18.00;99.90;;;;;;5076788;28;19938;-71
2022/07/26 05:28:57;;;;;;;;;;;18.00;99.90;;;;;;5094922;28;19912;-71
2022/07/26 05:31:23;;;;;;;;;;;18.00;99.90;;;;;;5095312;28;19904;-72
2022/07/26 05:33:49;;;;;;;;;;;18.10;99.90;;;;;;5094944;28;19904;-72
2022/07/26 05:36:15;;;;;;;;;;;18.20;99.90;;;;;;5094891;28;20299;-71
2022/07/26 05:38:41;;;;;;;;;;;18.30;99.90;;;;;;5095006;28;19943;-72
2022/07/26 05:41:06;;;;;;;;;;;18.20;99.90;;;;;;5095323;28;20318;-72
2022/07/26 05:43:32;;;;;;;;;;;18.30;99.90;;;;;;5095028;28;19911;-71
2022/07/26 05:45:57;;;;;;;;;;;18.30;99.90;;;;;;5093851;28;20432;-71
2022/07/26 05:48:23;;;;;;;;;;;18.20;99.90;;;;;;5094758;28;20402;-72
2022/07/26 05:50:49;;;;;;;;;;;18.20;99.90;;;;;;5094590;28;19904;-71
2022/07/26 05:53:14;;;;;;;;;;;18.20;99.90;;;;;;5094592;28;20272;-71
2022/07/26 05:55:40;;;;;;;;;;;18.20;99.90;;;;;;5094607;28;19904;-71
2022/07/26 05:58:06;;;;;;;;;;;18.20;99.90;;;;;;5094506;28;19904;-71
2022/07/26 06:00:31;;;;;;;;;;;18.10;99.90;;;;;;5094476;28;20388;-71
2022/07/26 06:02:57;;;;;;;;;;;18.20;99.90;;;;;;5094979;28;19943;-71
2022/07/26 06:05:23;;;;;;;;;;;18.20;99.90;;;;;;5094194;28;19970;-72
2022/07/26 06:07:48;;;;;;;;;;;18.30;99.90;;;;;;5094287;28;19912;-72
2022/07/26 06:10:14;;;;;;;;;;;18.30;99.90;;;;;;5094312;28;19907;-72
2022/07/26 06:12:40;;;;;;;;;;;18.30;99.90;;;;;;5094599;28;19904;-71
2022/07/26 06:15:05;;;;;;;;;;;18.30;99.90;;;;;;5094092;28;19939;-71
2022/07/26 06:17:31;;;;;;;;;;;18.30;99.90;;;;;;5093873;28;19904;-71
2022/07/26 06:19:57;;;;;;;;;;;18.40;99.90;;;;;;5093719;28;19930;-72
2022/07/26 06:22:23;;;;;;;;;;;18.40;99.90;;;;;;5093338;28;20427;-71
2022/07/26 06:24:48;;;;;;;;;;;18.50;99.90;;;;;;5094028;28;19903;-71
2022/07/26 06:27:14;;;;;;;;;;;18.50;99.90;;;;;;5094021;28;19904;-72
2022/07/26 06:29:39;;;;;;;;;;;18.50;99.90;;;;;;5094061;28;19904;-71
2022/07/26 06:32:05;;;;;;;;;;;18.50;99.90;;;;;;5094343;28;19904;-71
2022/07/26 06:34:31;;;;;;;;;;;18.50;99.90;;;;;;5093938;28;19910;-71
2022/07/26 06:36:57;;;;;;;;;;;18.40;99.90;;;;;;5093964;28;19904;-71
2022/07/26 06:39:22;;;;;;;;;;;18.30;99.90;;;;;;5093911;28;19912;-71
2022/07/26 06:41:47;;;;;;;;;;;18.30;99.90;;;;;;5093885;28;19907;-71
2022/07/26 06:44:13;;;;;;;;;;;18.40;99.90;;;;;;5093877;28;19904;-71
2022/07/26 06:46:39;;;;;;;;;;;18.40;99.90;;;;;;5094088;28;19918;-71
2022/07/26 06:49:04;;;;;;;;;;;18.40;99.90;;;;;;5093776;28;20283;-71
2022/07/26 06:51:30;;;;;;;;;;;18.40;99.90;;;;;;5094425;28;20356;-69
2022/07/26 06:53:55;;;;;;;;;;;18.40;99.90;;;;;;5093717;28;19995;-69
2022/07/26 06:56:21;;;;;;;;;;;18.40;99.90;;;;;;5093996;28;19905;-69
2022/07/26 06:58:46;;;;;;;;;;;18.40;99.90;;;;;;5093843;28;19953;-69
2022/07/26 07:01:12;;;;;;;;;;;18.40;99.90;;;;;;5093667;28;20374;-69
2022/07/26 07:03:37;;;;;;;;;;;18.30;99.90;;;;;;5093961;28;19908;-69
2022/07/26 07:06:03;;;;;;;;;;;18.30;99.90;;;;;;5094308;28;19918;-69
2022/07/26 07:08:29;;;;;;;;;;;18.20;99.90;;;;;;5075585;28;19994;-69
2022/07/26 07:10:55;;;;;;;;;;;18.10;99.90;;;;;;5093589;28;20360;-70
2022/07/26 07:13:21;;;;;;;;;;;18.10;99.90;;;;;;5093864;28;19966;-70
2022/07/26 07:15:46;;;;;;;;;;;18.10;99.90;;;;;;5093093;28;20394;-70
2022/07/26 07:18:12;;;;;;;;;;;18.10;99.90;;;;;;5093422;28;19911;-69
2022/07/26 07:20:39;;;;;;;;;;;18.00;99.90;;;;;;5093538;28;20364;-69
2022/07/26 07:23:04;;;;;;;;;;;18.00;99.90;;;;;;5075586;28;19986;-70
2022/07/26 07:25:30;;;;;;;;;;;18.10;99.90;;;;;;5093685;28;20328;-70
2022/07/26 07:27:55;;;;;;;;;;;18.10;99.90;;;;;;5093367;28;19915;-70
2022/07/26 07:30:21;;;;;;;;;;;18.10;99.90;;;;;;5093705;28;19904;-70
2022/07/26 07:32:46;;;;;;;;;;;18.20;99.90;;;;;;5093580;28;20379;-70
2022/07/26 07:35:12;;;;;;;;;;;18.20;99.90;;;;;;5097289;28;19904;-70
2022/07/26 07:37:38;;;;;;;;;;;18.20;99.90;;;;;;5078997;28;19908;-70
2022/07/26 07:40:07;;;;;;;;;;;18.20;99.90;;;;;;5097456;28;19904;-70
2022/07/26 07:42:33;;;;;;;;;;;18.30;99.90;;;;;;5097299;28;19904;-69
2022/07/26 07:44:58;;;;;;;;;;;18.40;99.90;;;;;;5097193;28;19927;-69
2022/07/26 07:47:24;;;;;;;;;;;18.40;99.90;;;;;;5097479;28;19911;-69
2022/07/26 07:49:50;;;;;;;;;;;18.50;99.90;;;;;;5096674;28;19908;-70
2022/07/26 07:52:15;;;;;;;;;;;18.60;99.90;;;;;;5095052;28;19904;-70
2022/07/26 07:54:41;;;;;;;;;;;18.80;99.90;;;;;;5095182;28;19904;-69
2022/07/26 07:57:06;;;;;;;;;;;18.90;99.90;;;;;;5095991;28;19908;-69
2022/07/26 07:59:32;;;;;;;;;;;19.10;99.90;;;;;;5095581;28;19939;-70
2022/07/26 08:01:58;;;;;;;;;;;19.30;99.90;;;;;;5096652;28;20299;-69
2022/07/26 08:04:23;;;;;;;;;;;19.40;99.90;;;;;;5090728;28;19912;-70
2022/07/26 08:06:49;;;;;;;;;;;19.40;99.90;;;;;;5101464;28;19916;-69
2022/07/26 08:09:14;;;;;;;;;;;19.40;99.90;;;;;;5087569;28;20374;-69
2022/07/26 08:11:40;;;;;;;;;;;19.40;99.90;;;;;;5095507;28;19905;-70
2022/07/26 08:14:05;;;;;;;;;;;19.40;99.90;;;;;;5096305;28;19903;-70
2022/07/26 08:16:31;;;;;;;;;;;19.40;99.90;;;;;;5091986;28;19908;-70
2022/07/26 08:18:56;;;;;;;;;;;19.40;99.90;;;;;;5092920;28;19915;-70
2022/07/26 08:21:22;;;;;;;;;;;19.40;99.90;;;;;;5088684;28;19973;-70
2022/07/26 08:23:48;;;;;;;;;;;19.40;99.90;;;;;;5095227;28;19912;-70
2022/07/26 08:26:14;;;;;;;;;;;19.50;99.90;;;;;;5095668;28;19904;-70
2022/07/26 08:28:39;;;;;;;;;;;19.50;99.90;;;;;;5093644;28;19916;-70
2022/07/26 08:31:05;;;;;;;;;;;19.50;99.90;;;;;;5095900;28;19908;-70
2022/07/26 08:33:30;;;;;;;;;;;19.60;99.90;;;;;;5090276;28;19933;-70
2022/07/26 08:35:56;;;;;;;;;;;19.70;99.90;;;;;;5091577;28;19914;-70
2022/07/26 08:38:21;;;;;;;;;;;19.70;99.90;;;;;;5094770;28;19946;-70
2022/07/26 08:40:47;;;;;;;;;;;19.90;99.90;;;;;;5091439;28;19908;-70
2022/07/26 08:43:12;;;;;;;;;;;19.90;99.90;;;;;;5091816;28;20368;-70
2022/07/26 08:45:38;;;;;;;;;;;20.10;99.90;;;;;;5087874;28;19912;-70
2022/07/26 08:48:03;;;;;;;;;;;20.30;99.90;;;;;;5092508;28;19987;-70
2022/07/26 08:50:29;;;;;;;;;;;20.50;99.90;;;;;;5070811;28;19911;-70
2022/07/26 08:52:59;;;;;;;;;;;20.70;99.90;;;;;;5091531;28;19908;-70
2022/07/26 08:55:24;;;;;;;;;;;21.00;99.90;;;;;;5095307;28;19946;-70
2022/07/26 08:57:50;;;;;;;;;;;21.10;99.90;;;;;;5095156;28;19957;-70
2022/07/26 09:00:19;;;;;;;;;;;21.10;99.90;;;;;;5092582;28;19908;-70
2022/07/26 09:02:45;;;;;;;;;;;21.20;99.90;;;;;;5086533;28;20245;-70
2022/07/26 09:05:11;;;;;;;;;;;21.30;99.90;;;;;;5089483;28;21533;-70
2022/07/26 09:07:38;;;;;;;;;;;21.40;99.90;;;;;;5093572;28;20011;-70
2022/07/26 09:10:08;;;;;;;;;;;21.40;99.90;;;;;;5094401;28;19904;-70
2022/07/26 09:12:34;;;;;;;;;;;21.50;99.90;;;;;;5074403;28;19908;-70
2022/07/26 09:15:00;;;;;;;;;;;21.70;99.90;;;;;;5094264;28;19904;-70
2022/07/26 09:17:46;;;;;;;;;;;21.80;99.90;;;;;;5094157;28;19994;-70
2022/07/26 09:20:12;;;;;;;;;;;21.90;99.90;;;;;;5088632;28;19904;-70
2022/07/26 09:22:54;;;;;;;;;;;21.80;99.90;;;;;;5089735;28;19911;-70
2022/07/26 09:25:21;;;;;;;;;;;21.90;99.90;;;;;;5090453;28;19908;-70
2022/07/26 09:27:46;;;;;;;;;;;21.90;99.90;;;;;;5094503;28;20440;-70
2022/07/26 09:30:12;;;;;;;;;;;21.90;99.90;;;;;;5094456;28;19943;-70
2022/07/26 09:32:37;;;;;;;;;;;21.90;99.90;;;;;;5076677;28;20372;-70
2022/07/26 09:35:16;;;;;;;;;;;21.90;99.90;;;;;;5094666;28;20006;-70
2022/07/26 09:37:42;;;;;;;;;;;21.90;99.90;;;;;;5074825;28;19908;-70
2022/07/26 09:40:12;;;;;;;;;;;22.00;99.90;;;;;;5090773;28;20352;-70
2022/07/26 09:42:52;;;;;;;;;;;22.00;99.90;;;;;;5093675;28;19961;-70
2022/07/26 09:45:17;;;;;;;;;;;22.00;99.90;;;;;;5085920;28;19915;-71
2022/07/26 09:47:43;;;;;;;;;;;22.20;99.90;;;;;;5093288;28;19912;-70
2022/07/26 09:50:09;;;;;;;;;;;22.40;99.90;;;;;;5090773;28;19914;-70
2022/07/26 09:52:35;;;;;;;;;;;22.50;99.90;;;;;;5075884;28;19904;-70
2022/07/26 09:55:03;;;;;;;;;;;22.60;99.90;;;;;;5093070;28;19912;-71
2022/07/26 09:57:29;;;;;;;;;;;22.60;99.90;;;;;;5096658;28;19955;-70
2022/07/26 09:59:55;;;;;;;;;;;22.70;99.90;;;;;;5093652;28;19946;-71
2022/07/26 10:02:20;;;;;;;;;;;22.80;99.90;;;;;;5093292;28;19950;-70
2022/07/26 10:04:46;;;;;;;;;;;23.00;99.90;;;;;;5094023;28;19912;-70
2022/07/26 10:07:12;;;;;;;;;;;23.10;99.90;;;;;;5090850;28;19912;-70
2022/07/26 10:09:57;;;;;;;;;;;23.20;99.90;;;;;;5091853;28;20002;-71
2022/07/26 10:12:24;;;;;;;;;;;23.30;99.90;;;;;;5080973;28;19961;-70
2022/07/26 10:14:50;;;;;;;;;;;23.50;99.90;;;;;;5092292;28;20382;-70
2022/07/26 10:17:25;;;;;;;;;;;23.50;99.90;;;;;;5092716;28;19911;-70
2022/07/26 10:19:54;;;;;;;;;;;23.70;99.50;;;;;;5088657;28;19915;-71
2022/07/26 10:22:23;;;;;;;;;;;23.90;98.80;;;;;;5091418;28;20405;-71
2022/07/26 10:24:48;;;;;;;;;;;23.90;99.50;;;;;;5086607;28;19953;-71
2022/07/26 10:27:33;;;;;;;;;;;24.00;99.30;;;;;;5092587;28;19908;-70
2022/07/26 10:30:16;;;;;;;;;;;24.10;98.60;;;;;;5084753;28;19962;-71
2022/07/26 10:32:58;;;;;;;;;;;24.20;98.40;;;;;;5097581;28;19950;-71
2022/07/26 10:35:28;;;;;;;;;;;24.20;97.80;;;;;;5096155;28;19961;-71
2022/07/26 10:38:12;;;;;;;;;;;24.30;98.10;;;;;;5091170;28;19917;-71
2022/07/26 10:40:53;;;;;;;;;;;24.40;97.50;;;;;;5089905;28;19908;-71
2022/07/26 10:43:19;;;;;;;;;;;24.60;97.30;;;;;;5088064;28;19919;-72
2022/07/26 10:45:44;;;;;;;;;;;24.60;95.70;;;;;;5088669;28;19909;-72
2022/07/26 10:48:11;;;;;;;;;;;24.70;95.80;;;;;;5086746;28;20014;-71
2022/07/26 10:50:36;;;;;;;;;;;24.70;95.60;;;;;;5089084;28;19934;-72
2022/07/26 10:53:02;;;;;;;;;;;24.70;95.40;;;;;;5090412;28;19908;-71
2022/07/26 10:55:28;;;;;;;;;;;24.80;94.40;;;;;;5087000;28;19912;-72
2022/07/26 10:57:53;;;;;;;;;;;24.80;95.50;;;;;;5063150;28;19908;-72
2022/07/26 11:00:24;;;;;;;;;;;24.80;94.40;;;;;;5089788;28;19915;-74
2022/07/26 11:02:54;;;;;;;;;;;24.60;94.60;;;;;;5082348;28;19915;-72
2022/07/26 11:05:21;;;;;;;;;;;24.40;93.50;;;;;;5068274;28;19935;-71
2022/07/26 11:07:46;;;;;;;;;;;24.40;94.80;;;;;;5090794;28;19973;-72
2022/07/26 11:10:12;;;;;;;;;;;24.60;95.80;;;;;;5096156;28;19915;-72
2022/07/26 11:12:37;;;;;;;;;;;24.70;95.20;;;;;;5089269;28;19915;-72
2022/07/26 11:15:16;;;;;;;;;;;24.80;93.40;;;;;;5077852;28;19908;-72
2022/07/26 11:17:42;;;;;;;;;;;24.90;94.50;;;;;;5090095;28;19914;-72
2022/07/26 11:20:07;;;;;;;;;;;25.00;94.50;;;;;;5083146;28;19912;-72
2022/07/26 11:22:34;;;;;;;;;;;25.10;93.90;;;;;;5073438;28;19914;-73
2022/07/26 11:25:01;;;;;;;;;;;25.00;92.10;;;;;;5095484;28;19908;-72
2022/07/26 11:27:26;;;;;;;;;;;24.80;93.20;;;;;;5090805;28;20323;-72
2022/07/26 11:29:52;;;;;;;;;;;24.90;94.30;;;;;;5094932;28;19908;-72
2022/07/26 11:32:19;;;;;;;;;;;25.20;94.20;;;;;;5074123;28;19934;-72
2022/07/26 11:34:45;;;;;;;;;;;25.30;90.20;;;;;;5095115;28;20315;-72
2022/07/26 11:37:10;;;;;;;;;;;25.50;92.30;;;;;;5099011;28;19962;-72
2022/07/26 11:39:36;;;;;;;;;;;25.60;91.50;;;;;;5094815;28;20026;-72
2022/07/26 11:42:01;;;;;;;;;;;25.50;91.50;;;;;;5090684;28;19935;-72
2022/07/26 11:44:27;;;;;;;;;;;25.50;90.50;;;;;;5093162;28;19911;-72
2022/07/26 11:46:53;;;;;;;;;;;25.40;91.80;;;;;;5092721;28;19908;-71
2022/07/26 11:49:20;;;;;;;;;;;25.20;91.40;;;;;;5096332;28;19973;-72
2022/07/26 11:51:49;;;;;;;;;;;25.00;90.40;;;;;;5093722;28;19908;-73
2022/07/26 11:54:14;;;;;;;;;;;24.70;92.20;;;;;;5095790;28;19999;-71
2022/07/26 11:56:48;;;;;;;;;;;24.60;91.00;;;;;;5093448;28;20403;-72
2022/07/26 11:59:13;;;;;;;;;;;24.50;92.00;;;;;;5090358;28;20416;-71
2022/07/26 12:01:39;;;;;;;;;;;24.40;92.90;;;;;;5095281;28;20045;-72
2022/07/26 12:04:16;;;;;;;;;;;24.30;92.20;;;;;;5075656;28;19995;-73
2022/07/26 12:06:41;;;;;;;;;;;24.10;92.70;;;;;;5095379;28;19931;-71
2022/07/26 12:09:07;;;;;;;;;;;24.00;93.40;;;;;;5092074;28;20280;-72
2022/07/26 12:11:38;;;;;;;;;;;23.90;94.20;;;;;;5093371;28;19931;-72
2022/07/26 12:14:04;;;;;;;;;;;23.80;94.40;;;;;;5091230;28;19916;-71
2022/07/26 12:16:37;;;;;;;;;;;23.70;94.40;;;;;;5095428;28;19915;-71
2022/07/26 12:19:03;;;;;;;;;;;23.70;93.60;;;;;;5071268;28;19916;-71
2022/07/26 12:21:41;;;;;;;;;;;23.60;94.30;;;;;;5090847;28;20010;-73
2022/07/26 12:24:07;;;;;;;;;;;23.50;94.20;;;;;;5091016;28;19919;-72
2022/07/26 12:26:33;;;;;;;;;;;23.20;94.20;;;;;;5091082;28;19908;-72
2022/07/26 12:29:23;;;;;;;;;;;23.00;94.80;;;;;;5087167;28;19916;-70
2022/07/26 12:31:45;;;;;;;;;;;22.80;95.20;;;;;;5093848;28;19951;-72
2022/07/26 12:34:10;;;;;;;;;;;22.70;96.20;;;;;;5091793;28;19908;-70
2022/07/26 12:36:36;;;;;;;;;;;22.60;96.10;;;;;;5092958;28;19955;-71
2022/07/26 12:39:03;;;;;;;;;;;22.50;96.20;;;;;;5094273;28;19915;-71
2022/07/26 12:41:32;;;;;;;;;;;22.50;96.10;;;;;;5091455;28;19965;-72
2022/07/26 12:43:58;;;;;;;;;;;22.40;96.60;;;;;;5095711;28;19927;-72
2022/07/26 12:46:24;;;;;;;;;;;22.40;96.40;;;;;;5095787;28;19904;-71
2022/07/26 12:48:49;;;;;;;;;;;22.40;96.80;;;;;;5091227;28;19958;-70
2022/07/26 12:51:15;;;;;;;;;;;22.40;97.60;;;;;;5090132;28;19908;-72
2022/07/26 12:53:40;;;;;;;;;;;22.50;97.80;;;;;;5095351;28;19912;-70
2022/07/26 12:56:06;;;;;;;;;;;22.60;98.00;;;;;;5077564;28;19962;-71
2022/07/26 12:58:31;;;;;;;;;;;22.60;97.60;;;;;;5070299;28;19915;-71
2022/07/26 13:00:57;;;;;;;;;;;22.60;97.20;;;;;;5091092;28;19908;-71
2022/07/26 13:03:23;;;;;;;;;;;22.60;96.40;;;;;;5076570;28;20003;-72
2022/07/26 13:05:48;;;;;;;;;;;22.70;96.10;;;;;;5089024;28;19916;-71
2022/07/26 13:08:14;;;;;;;;;;;22.70;95.60;;;;;;5077330;28;19908;-71
2022/07/26 13:10:40;;;;;;;;;;;22.70;95.40;;;;;;5092397;28;19950;-72
2022/07/26 13:13:06;;;;;;;;;;;22.80;95.20;;;;;;5087365;28;19915;-72
2022/07/26 13:15:31;;;;;;;;;;;22.80;95.10;;;;;;5093285;28;19908;-71
2022/07/26 13:17:57;;;;;;;;;;;22.80;95.20;;;;;;5092601;28;19962;-70
2022/07/26 13:20:23;;;;;;;;;;;23.00;94.10;;;;;;5091124;28;19966;-71
2022/07/26 13:22:48;;;;;;;;;;;23.00;94.40;;;;;;5095036;28;19907;-70
2022/07/26 13:25:14;;;;;;;;;;;23.00;93.70;;;;;;5094989;28;19912;-71
2022/07/26 13:27:40;;;;;;;;;;;23.00;94.20;;;;;;5093391;28;19915;-71
2022/07/26 13:30:05;;;;;;;;;;;22.90;93.70;;;;;;5094431;28;19910;-71
2022/07/26 13:32:31;;;;;;;;;;;22.90;93.80;;;;;;5092973;28;19952;-71
2022/07/26 13:34:57;;;;;;;;;;;22.80;94.20;;;;;;5086165;28;19908;-71
2022/07/26 13:37:22;;;;;;;;;;;22.80;93.50;;;;;;5092232;28;20279;-71
2022/07/26 13:39:48;;;;;;;;;;;22.70;93.70;;;;;;5093681;28;20467;-72
2022/07/26 13:42:15;;;;;;;;;;;22.70;93.60;;;;;;5094735;28;19904;-71
2022/07/26 13:44:41;;;;;;;;;;;22.60;93.20;;;;;;5093089;28;19908;-71
2022/07/26 13:47:06;;;;;;;;;;;22.60;93.70;;;;;;5087043;28;19915;-71
2022/07/26 13:49:32;;;;;;;;;;;22.50;94.30;;;;;;5093232;28;19918;-70
2022/07/26 13:51:58;;;;;;;;;;;22.60;94.00;;;;;;5074941;28;19908;-71
2022/07/26 13:54:29;;;;;;;;;;;22.70;93.90;;;;;;5094353;28;19947;-71
2022/07/26 13:56:56;;;;;;;;;;;22.80;94.50;;;;;;5078318;28;19915;-71
2022/07/26 13:59:21;;;;;;;;;;;22.80;94.20;;;;;;5093848;28;19942;-71
2022/07/26 14:01:47;;;;;;;;;;;22.90;93.20;;;;;;5091494;28;20028;-71
2022/07/26 14:04:13;;;;;;;;;;;23.00;93.10;;;;;;5091835;28;20405;-71
2022/07/26 14:06:39;;;;;;;;;;;23.00;93.30;;;;;;5091673;28;19916;-71
2022/07/26 14:09:06;;;;;;;;;;;23.00;93.40;;;;;;5076403;28;19920;-71
2022/07/26 14:11:32;;;;;;;;;;;23.00;92.90;;;;;;5070776;28;20383;-71
2022/07/26 14:13:57;;;;;;;;;;;22.90;92.60;;;;;;5094086;28;19904;-71